createdAt,value
2022-08-25T00:03:28.969Z,14.35
2022-08-25T00:08:40.760Z,14.29
2022-08-25T00:13:46.784Z,14.19
2022-08-25T00:18:54.312Z,14.17
2022-08-25T00:23:58.076Z,14.13
2022-08-25T00:29:02.237Z,14.08
2022-08-25T00:34:11.481Z,14.08
2022-08-25T00:39:15.311Z,13.98
2022-08-25T00:44:19.623Z,13.97
2022-08-25T00:49:40.466Z,13.97
2022-08-25T00:54:50.744Z,13.99
2022-08-25T00:59:54.224Z,13.89
2022-08-25T01:04:57.799Z,13.98
2022-08-25T01:10:01.926Z,13.90
2022-08-25T01:15:09.659Z,13.86
2022-08-25T01:20:15.552Z,13.82
2022-08-25T01:25:51.934Z,13.87
2022-08-25T01:30:56.577Z,13.86
2022-08-25T01:36:00.440Z,13.84
2022-08-25T01:41:04.249Z,13.83
2022-08-25T01:46:07.697Z,13.69
2022-08-25T01:51:11.667Z,13.66
2022-08-25T01:56:16.868Z,13.65
2022-08-25T02:01:24.969Z,13.55
2022-08-25T02:06:33.202Z,13.37
2022-08-25T02:11:38.279Z,13.47
2022-08-25T02:16:48.517Z,13.44
2022-08-25T02:21:53.619Z,13.45
2022-08-25T02:26:58.850Z,13.61
2022-08-25T02:32:04.264Z,13.70
2022-08-25T02:37:07.935Z,13.76
2022-08-25T02:42:11.656Z,13.71
2022-08-25T02:47:15.464Z,13.72
2022-08-25T02:52:19.403Z,13.69
2022-08-25T02:57:23.006Z,13.62
2022-08-25T03:02:27.701Z,13.54
2022-08-25T03:07:31.238Z,13.44
2022-08-25T03:12:39.191Z,13.38
2022-08-25T03:17:45.668Z,13.37
2022-08-25T03:22:50.574Z,13.30
2022-08-25T03:27:54.221Z,13.26
2022-08-25T03:32:57.876Z,13.19
2022-08-25T03:38:02.963Z,13.12
2022-08-25T03:43:06.599Z,12.90
2022-08-25T03:48:10.134Z,12.90
2022-08-25T03:53:16.837Z,12.87
2022-08-25T03:58:20.643Z,12.85
2022-08-25T04:03:25.783Z,12.87
2022-08-25T04:08:29.442Z,12.83
2022-08-25T04:13:35.760Z,12.83
2022-08-25T04:18:40.036Z,12.76
2022-08-25T04:23:49.682Z,12.80
2022-08-25T04:28:54.024Z,12.76
2022-08-25T04:33:58.501Z,12.76
2022-08-25T04:39:03.006Z,12.76
2022-08-25T04:44:07.169Z,12.71
2022-08-25T04:49:13.452Z,12.75
2022-08-25T04:54:18.521Z,12.85
2022-08-25T04:59:22.210Z,12.93
2022-08-25T05:04:25.687Z,13.02
2022-08-25T05:09:33.098Z,13.04
2022-08-25T05:14:39.527Z,13.11
2022-08-25T05:19:43.546Z,13.30
2022-08-25T05:24:47.088Z,13.47
2022-08-25T05:29:50.552Z,13.70
2022-08-25T05:34:53.979Z,13.91
2022-08-25T05:39:57.511Z,14.07
2022-08-25T05:45:05.407Z,14.30
2022-08-25T05:50:10.081Z,14.52
2022-08-25T05:55:13.560Z,14.72
2022-08-25T06:00:19.583Z,14.89
2022-08-25T06:05:24.201Z,15.05
2022-08-25T06:10:29.386Z,15.28
2022-08-25T06:15:34.798Z,15.33
2022-08-25T06:20:38.223Z,15.51
2022-08-25T06:25:41.809Z,15.69
2022-08-25T06:30:45.396Z,15.89
2022-08-25T06:35:48.859Z,16.11
2022-08-25T06:40:53.591Z,16.27
2022-08-25T06:45:57.264Z,16.35
2022-08-25T06:51:01.030Z,16.61
2022-08-25T06:56:06.833Z,16.78
2022-08-25T07:01:15.655Z,16.97
2022-08-25T07:06:23.317Z,17.15
2022-08-25T07:11:27.303Z,17.38
2022-08-25T07:16:32.342Z,17.40
2022-08-25T07:21:40.689Z,17.68
2022-08-25T07:26:44.537Z,17.95
2022-08-25T07:31:48.369Z,18.22
2022-08-25T07:36:51.871Z,18.67
2022-08-25T07:41:55.753Z,18.74
2022-08-25T07:46:59.553Z,18.71
2022-08-25T07:52:06.725Z,19.01
2022-08-25T07:57:10.844Z,19.01
2022-08-25T08:02:18.902Z,19.42
2022-08-25T08:07:43.510Z,19.56
2022-08-25T08:12:48.468Z,20.08
2022-08-25T08:17:54.854Z,20.21
2022-08-25T08:22:58.870Z,20.63
2022-08-25T08:28:02.474Z,21.09
2022-08-25T08:33:11.408Z,22.44
2022-08-25T08:38:20.867Z,22.90
2022-08-25T08:43:33.221Z,23.56
2022-08-25T08:48:57.497Z,23.83
2022-08-25T08:54:16.615Z,23.21
2022-08-25T08:59:30.099Z,24.30
2022-08-25T09:04:45.152Z,25.00
2022-08-25T09:09:48.916Z,25.02
2022-08-25T09:15:52.661Z,25.29
2022-08-25T09:21:21.384Z,26.26
2022-08-25T09:26:30.898Z,26.32
2022-08-25T09:31:39.687Z,26.86
2022-08-25T09:36:46.217Z,26.23
2022-08-25T09:41:57.097Z,26.64
2022-08-25T09:47:21.460Z,26.36
2022-08-25T09:52:41.270Z,26.28
2022-08-25T09:57:56.804Z,27.19
2022-08-25T10:03:22.753Z,25.02
2022-08-25T10:08:52.400Z,26.14
2022-08-25T10:14:05.973Z,25.94
2022-08-25T10:19:15.345Z,25.75
2022-08-25T10:24:18.806Z,26.15
2022-08-25T10:29:27.966Z,27.07
2022-08-25T10:34:57.060Z,27.96
2022-08-25T10:40:22.849Z,27.44
2022-08-25T10:51:56.440Z,27.20
2022-08-25T10:58:12.942Z,28.02
2022-08-25T11:04:19.852Z,27.92
2022-08-25T11:21:35.981Z,28.08
2022-08-25T11:27:24.776Z,27.92
2022-08-25T11:33:02.148Z,26.09
2022-08-25T11:38:48.010Z,26.17
2022-08-25T11:43:57.732Z,26.19
2022-08-25T11:49:47.440Z,27.21
2022-08-25T11:56:01.461Z,26.52
2022-08-25T12:01:54.648Z,27.63
2022-08-25T12:08:13.246Z,28.23
2022-08-25T12:13:46.225Z,29.82
2022-08-25T12:18:52.073Z,27.91
2022-08-25T12:24:20.400Z,26.17
2022-08-25T12:30:01.857Z,26.99
2022-08-25T12:36:19.745Z,27.74
2022-08-25T12:44:23.447Z,28.49
2022-08-25T12:49:08.405Z,28.60
2022-08-25T13:07:30.169Z,28.13
2022-08-25T13:19:16.072Z,28.92
2022-08-25T13:25:46.353Z,29.00
2022-08-25T13:31:43.054Z,26.79
2022-08-25T13:37:32.780Z,28.02
2022-08-25T13:43:27.629Z,29.52
2022-08-25T13:49:49.370Z,29.00
2022-08-25T13:56:14.036Z,29.48
2022-08-25T14:02:19.596Z,28.26
2022-08-25T14:14:46.406Z,27.47
2022-08-25T14:20:11.317Z,26.72
2022-08-25T14:32:18.303Z,26.05
2022-08-25T15:02:20.006Z,26.65
2022-08-25T15:14:29.120Z,26.73
2022-08-25T15:21:19.339Z,26.84
2022-08-25T15:26:24.794Z,27.41
2022-08-25T15:32:57.575Z,28.18
2022-08-25T15:39:10.838Z,28.23
2022-08-25T15:49:53.450Z,27.80
2022-08-25T15:55:48.652Z,27.74
2022-08-25T16:13:02.639Z,26.06
2022-08-25T16:19:01.337Z,25.53
2022-08-25T16:24:08.662Z,24.95
2022-08-25T16:29:17.545Z,24.80
2022-08-25T16:34:20.664Z,24.56
2022-08-25T16:39:24.152Z,24.28
2022-08-25T16:44:27.934Z,24.21
2022-08-25T16:49:31.849Z,23.98
2022-08-25T16:54:53.206Z,23.68
2022-08-25T16:59:57.231Z,23.45
2022-08-25T17:05:08.171Z,23.23
2022-08-25T17:26:59.750Z,22.24
2022-08-25T17:32:06.158Z,22.08
2022-08-25T17:37:09.321Z,21.94
2022-08-25T17:42:12.663Z,21.97
2022-08-25T17:47:15.735Z,21.77
2022-08-25T17:52:22.460Z,21.39
2022-08-25T17:57:28.624Z,21.15
2022-08-25T18:02:32.001Z,21.14
2022-08-25T18:07:38.236Z,21.14
2022-08-25T18:12:41.316Z,21.02
2022-08-25T18:17:46.500Z,20.91
2022-08-25T18:22:51.189Z,20.80
2022-08-25T18:27:56.110Z,20.69
2022-08-25T18:33:00.286Z,20.62
2022-08-25T18:38:22.413Z,20.50
2022-08-25T18:43:28.906Z,20.48
2022-08-25T18:48:35.314Z,20.40
2022-08-25T18:53:50.119Z,20.38
2022-08-25T18:58:53.830Z,20.29
2022-08-25T19:03:58.065Z,20.24
2022-08-25T19:09:01.237Z,20.12
2022-08-25T19:14:04.981Z,20.05
2022-08-25T19:19:15.757Z,19.95
2022-08-25T19:24:20.042Z,19.86
2022-08-25T19:29:24.848Z,19.63
2022-08-25T19:34:32.768Z,19.50
2022-08-25T19:39:39.059Z,19.45
2022-08-25T19:44:43.399Z,19.32
2022-08-25T19:49:47.454Z,19.29
2022-08-25T19:54:54.025Z,19.30
2022-08-25T19:59:57.427Z,19.25
2022-08-25T20:05:00.685Z,19.14
2022-08-25T20:10:07.399Z,19.13
2022-08-25T20:15:12.609Z,19.12
2022-08-25T20:20:19.608Z,19.04
2022-08-25T20:25:26.107Z,18.85
2022-08-25T20:30:31.294Z,18.77
2022-08-25T20:36:35.251Z,18.69
2022-08-25T20:41:58.621Z,18.69
2022-08-25T20:47:08.211Z,18.56
2022-08-25T20:52:12.803Z,18.33
2022-08-25T20:57:16.575Z,18.13
2022-08-25T21:02:24.448Z,18.14
2022-08-25T21:07:27.572Z,18.13
2022-08-25T21:12:32.209Z,18.17
2022-08-25T21:17:35.621Z,18.19
2022-08-25T21:22:41.897Z,18.16
2022-08-25T21:27:46.049Z,18.08
2022-08-25T21:32:54.066Z,18.07
2022-08-25T21:37:58.687Z,18.04
2022-08-25T21:43:02.617Z,17.89
2022-08-25T21:48:05.905Z,17.78
2022-08-25T21:53:10.044Z,17.63
2022-08-25T21:58:14.620Z,17.61
2022-08-25T22:03:20.625Z,17.49
2022-08-25T22:08:30.553Z,17.30
2022-08-25T22:13:35.929Z,17.29
2022-08-25T22:18:44.355Z,17.31
2022-08-25T22:23:47.796Z,17.08
2022-08-25T22:28:51.197Z,16.92
2022-08-25T22:33:55.227Z,16.95
2022-08-25T22:39:01.432Z,16.92
2022-08-25T22:44:07.383Z,16.87
2022-08-25T22:49:10.832Z,16.61
2022-08-25T22:54:15.749Z,16.53
2022-08-25T22:59:20.048Z,16.51
2022-08-25T23:04:26.675Z,16.48
2022-08-25T23:09:30.009Z,16.35
2022-08-25T23:14:37.573Z,16.36
2022-08-25T23:19:46.617Z,16.33
2022-08-25T23:24:54.181Z,16.30
2022-08-25T23:29:57.423Z,16.23
2022-08-25T23:35:00.476Z,16.20
2022-08-25T23:40:06.388Z,16.06
2022-08-25T23:45:10.530Z,16.05
2022-08-25T23:50:14.866Z,16.03
2022-08-25T23:55:17.881Z,15.96
